sensor_id;sensor_type;location;lat;lon;timestamp;P1;durP1;ratioP1;P2;durP2;ratioP2
5807;SDS011;2930;42.678;23.312;2023-02-28T00:00:49;1.93;;;1.83;;
5807;SDS011;2930;42.678;23.312;2023-02-28T00:03:14;2.03;;;1.93;;
5807;SDS011;2930;42.678;23.312;2023-02-28T00:05:40;2.77;;;1.80;;
5807;SDS011;2930;42.678;23.312;2023-02-28T00:08:06;1.67;;;1.57;;
5807;SDS011;2930;42.678;23.312;2023-02-28T00:10:32;4.57;;;2.30;;
5807;SDS011;2930;42.678;23.312;2023-02-28T00:13:00;2.30;;;2.10;;
5807;SDS011;2930;42.678;23.312;2023-02-28T00:15:30;2.47;;;2.10;;
5807;SDS011;2930;42.678;23.312;2023-02-28T00:17:57;3.13;;;1.93;;
5807;SDS011;2930;42.678;23.312;2023-02-28T00:20:23;3.07;;;1.87;;
5807;SDS011;2930;42.678;23.312;2023-02-28T00:22:50;2.33;;;2.17;;
5807;SDS011;2930;42.678;23.312;2023-02-28T00:25:21;3.10;;;2.07;;
5807;SDS011;2930;42.678;23.312;2023-02-28T00:27:48;2.13;;;2.03;;
5807;SDS011;2930;42.678;23.312;2023-02-28T00:30:16;3.47;;;1.97;;
5807;SDS011;2930;42.678;23.312;2023-02-28T00:32:43;2.93;;;1.70;;
5807;SDS011;2930;42.678;23.312;2023-02-28T00:35:09;2.20;;;1.73;;
5807;SDS011;2930;42.678;23.312;2023-02-28T00:37:35;1.77;;;1.67;;
5807;SDS011;2930;42.678;23.312;2023-02-28T00:40:01;2.40;;;1.70;;
5807;SDS011;2930;42.678;23.312;2023-02-28T00:42:29;3.70;;;1.70;;
5807;SDS011;2930;42.678;23.312;2023-02-28T00:44:55;3.33;;;1.93;;
5807;SDS011;2930;42.678;23.312;2023-02-28T00:47:21;1.80;;;1.67;;
5807;SDS011;2930;42.678;23.312;2023-02-28T00:49:47;2.10;;;1.93;;
5807;SDS011;2930;42.678;23.312;2023-02-28T00:52:13;1.77;;;1.67;;
5807;SDS011;2930;42.678;23.312;2023-02-28T00:54:38;2.20;;;2.00;;
5807;SDS011;2930;42.678;23.312;2023-02-28T00:57:04;1.67;;;1.57;;
5807;SDS011;2930;42.678;23.312;2023-02-28T00:59:30;4.07;;;1.80;;
5807;SDS011;2930;42.678;23.312;2023-02-28T01:01:55;2.77;;;1.73;;
5807;SDS011;2930;42.678;23.312;2023-02-28T01:04:21;2.03;;;1.90;;
5807;SDS011;2930;42.678;23.312;2023-02-28T01:06:47;1.70;;;1.60;;
5807;SDS011;2930;42.678;23.312;2023-02-28T01:09:12;1.87;;;1.77;;
5807;SDS011;2930;42.678;23.312;2023-02-28T01:11:38;2.83;;;1.83;;
5807;SDS011;2930;42.678;23.312;2023-02-28T01:14:05;2.20;;;2.00;;
5807;SDS011;2930;42.678;23.312;2023-02-28T01:16:31;2.17;;;2.03;;
5807;SDS011;2930;42.678;23.312;2023-02-28T01:18:57;2.50;;;1.67;;
5807;SDS011;2930;42.678;23.312;2023-02-28T01:21:23;4.77;;;2.30;;
5807;SDS011;2930;42.678;23.312;2023-02-28T01:23:49;2.23;;;2.07;;
5807;SDS011;2930;42.678;23.312;2023-02-28T01:26:17;2.43;;;2.20;;
5807;SDS011;2930;42.678;23.312;2023-02-28T01:28:47;2.53;;;2.33;;
5807;SDS011;2930;42.678;23.312;2023-02-28T01:31:14;3.07;;;2.23;;
5807;SDS011;2930;42.678;23.312;2023-02-28T01:33:40;2.87;;;2.67;;
5807;SDS011;2930;42.678;23.312;2023-02-28T01:38:34;2.97;;;2.63;;
5807;SDS011;2930;42.678;23.312;2023-02-28T01:41:00;4.30;;;2.87;;
5807;SDS011;2930;42.678;23.312;2023-02-28T01:43:27;4.17;;;2.33;;
5807;SDS011;2930;42.678;23.312;2023-02-28T01:45:55;3.03;;;2.70;;
5807;SDS011;2930;42.678;23.312;2023-02-28T01:48:26;3.17;;;2.47;;
5807;SDS011;2930;42.678;23.312;2023-02-28T01:50:56;4.47;;;2.77;;
5807;SDS011;2930;42.678;23.312;2023-02-28T01:53:27;3.03;;;2.07;;
5807;SDS011;2930;42.678;23.312;2023-02-28T01:55:58;2.33;;;2.03;;
5807;SDS011;2930;42.678;23.312;2023-02-28T01:58:24;3.67;;;2.30;;
5807;SDS011;2930;42.678;23.312;2023-02-28T02:00:50;3.57;;;2.43;;
5807;SDS011;2930;42.678;23.312;2023-02-28T02:03:17;6.63;;;2.93;;
5807;SDS011;2930;42.678;23.312;2023-02-28T02:05:45;3.30;;;2.37;;
5807;SDS011;2930;42.678;23.312;2023-02-28T02:08:15;6.57;;;3.27;;
5807;SDS011;2930;42.678;23.312;2023-02-28T02:10:44;4.17;;;3.13;;
5807;SDS011;2930;42.678;23.312;2023-02-28T02:38:58;5.17;;;3.17;;
5807;SDS011;2930;42.678;23.312;2023-02-28T02:41:33;6.30;;;3.17;;
5807;SDS011;2930;42.678;23.312;2023-02-28T02:46:44;4.47;;;2.60;;
5807;SDS011;2930;42.678;23.312;2023-02-28T02:49:24;5.87;;;3.17;;
5807;SDS011;2930;42.678;23.312;2023-02-28T02:51:55;10.37;;;3.27;;
5807;SDS011;2930;42.678;23.312;2023-02-28T02:54:25;5.07;;;3.03;;
5807;SDS011;2930;42.678;23.312;2023-02-28T02:56:54;4.50;;;3.07;;
5807;SDS011;2930;42.678;23.312;2023-02-28T02:59:24;6.10;;;3.70;;
5807;SDS011;2930;42.678;23.312;2023-02-28T03:01:54;4.37;;;2.57;;
5807;SDS011;2930;42.678;23.312;2023-02-28T03:04:23;9.70;;;3.07;;
5807;SDS011;2930;42.678;23.312;2023-02-28T03:06:52;6.80;;;3.03;;
5807;SDS011;2930;42.678;23.312;2023-02-28T03:09:20;6.93;;;3.50;;
5807;SDS011;2930;42.678;23.312;2023-02-28T03:11:50;7.93;;;3.37;;
5807;SDS011;2930;42.678;23.312;2023-02-28T03:19:45;5.77;;;2.63;;
5807;SDS011;2930;42.678;23.312;2023-02-28T03:28:01;5.63;;;2.87;;
5807;SDS011;2930;42.678;23.312;2023-02-28T03:30:30;7.70;;;3.40;;
5807;SDS011;2930;42.678;23.312;2023-02-28T03:33:03;4.87;;;3.13;;
5807;SDS011;2930;42.678;23.312;2023-02-28T03:35:41;3.67;;;2.60;;
5807;SDS011;2930;42.678;23.312;2023-02-28T03:38:18;4.07;;;2.80;;
5807;SDS011;2930;42.678;23.312;2023-02-28T03:40:51;6.33;;;3.33;;
5807;SDS011;2930;42.678;23.312;2023-02-28T03:43:43;5.87;;;2.60;;
5807;SDS011;2930;42.678;23.312;2023-02-28T03:46:18;4.07;;;2.47;;
5807;SDS011;2930;42.678;23.312;2023-02-28T03:48:54;2.87;;;2.40;;
5807;SDS011;2930;42.678;23.312;2023-02-28T03:51:35;3.40;;;2.37;;
5807;SDS011;2930;42.678;23.312;2023-02-28T03:54:07;5.40;;;2.83;;
5807;SDS011;2930;42.678;23.312;2023-02-28T03:56:51;3.97;;;2.57;;
5807;SDS011;2930;42.678;23.312;2023-02-28T03:59:38;3.37;;;2.73;;
5807;SDS011;2930;42.678;23.312;2023-02-28T04:02:07;8.87;;;3.30;;
5807;SDS011;2930;42.678;23.312;2023-02-28T04:04:33;5.53;;;2.97;;
5807;SDS011;2930;42.678;23.312;2023-02-28T04:07:04;4.90;;;2.83;;
5807;SDS011;2930;42.678;23.312;2023-02-28T04:09:33;4.87;;;2.67;;
5807;SDS011;2930;42.678;23.312;2023-02-28T04:11:59;3.67;;;2.53;;
5807;SDS011;2930;42.678;23.312;2023-02-28T04:14:25;3.07;;;2.77;;
5807;SDS011;2930;42.678;23.312;2023-02-28T04:16:51;3.60;;;2.77;;
5807;SDS011;2930;42.678;23.312;2023-02-28T04:19:17;5.03;;;3.00;;
5807;SDS011;2930;42.678;23.312;2023-02-28T04:21:44;6.67;;;2.67;;
5807;SDS011;2930;42.678;23.312;2023-02-28T04:24:15;6.00;;;2.80;;
5807;SDS011;2930;42.678;23.312;2023-02-28T04:26:44;4.63;;;3.07;;
5807;SDS011;2930;42.678;23.312;2023-02-28T04:29:12;9.27;;;3.27;;
5807;SDS011;2930;42.678;23.312;2023-02-28T04:31:43;4.33;;;3.83;;
5807;SDS011;2930;42.678;23.312;2023-02-28T04:34:08;6.57;;;3.57;;
5807;SDS011;2930;42.678;23.312;2023-02-28T04:36:34;5.83;;;3.77;;
5807;SDS011;2930;42.678;23.312;2023-02-28T04:39:00;7.00;;;3.70;;
5807;SDS011;2930;42.678;23.312;2023-02-28T04:41:25;5.40;;;2.97;;
5807;SDS011;2930;42.678;23.312;2023-02-28T04:43:51;3.87;;;2.50;;
5807;SDS011;2930;42.678;23.312;2023-02-28T04:46:18;3.73;;;2.70;;
5807;SDS011;2930;42.678;23.312;2023-02-28T04:48:44;7.60;;;3.30;;
5807;SDS011;2930;42.678;23.312;2023-02-28T04:51:11;6.70;;;2.90;;
5807;SDS011;2930;42.678;23.312;2023-02-28T04:53:38;4.27;;;2.57;;
5807;SDS011;2930;42.678;23.312;2023-02-28T04:56:06;2.93;;;2.27;;
5807;SDS011;2930;42.678;23.312;2023-02-28T04:58:32;2.70;;;2.50;;
5807;SDS011;2930;42.678;23.312;2023-02-28T05:01:05;6.70;;;2.63;;
5807;SDS011;2930;42.678;23.312;2023-02-28T05:03:38;4.70;;;2.33;;
5807;SDS011;2930;42.678;23.312;2023-02-28T05:06:05;6.57;;;2.57;;
5807;SDS011;2930;42.678;23.312;2023-02-28T05:08:32;3.80;;;2.40;;
5807;SDS011;2930;42.678;23.312;2023-02-28T05:10:58;4.17;;;2.43;;
5807;SDS011;2930;42.678;23.312;2023-02-28T05:13:25;3.97;;;2.27;;
5807;SDS011;2930;42.678;23.312;2023-02-28T05:15:52;3.80;;;3.20;;
5807;SDS011;2930;42.678;23.312;2023-02-28T05:18:18;9.87;;;3.17;;
5807;SDS011;2930;42.678;23.312;2023-02-28T05:20:43;6.00;;;2.70;;
5807;SDS011;2930;42.678;23.312;2023-02-28T05:23:13;6.90;;;3.37;;
5807;SDS011;2930;42.678;23.312;2023-02-28T05:25:40;4.07;;;2.67;;
5807;SDS011;2930;42.678;23.312;2023-02-28T05:28:06;3.97;;;2.73;;
5807;SDS011;2930;42.678;23.312;2023-02-28T05:30:32;6.27;;;3.63;;
5807;SDS011;2930;42.678;23.312;2023-02-28T05:32:58;3.90;;;2.13;;
5807;SDS011;2930;42.678;23.312;2023-02-28T05:35:25;5.33;;;3.00;;
5807;SDS011;2930;42.678;23.312;2023-02-28T05:37:51;7.63;;;3.50;;
5807;SDS011;2930;42.678;23.312;2023-02-28T05:40:17;6.23;;;3.30;;
5807;SDS011;2930;42.678;23.312;2023-02-28T05:42:45;4.33;;;2.57;;
5807;SDS011;2930;42.678;23.312;2023-02-28T05:45:12;5.70;;;3.50;;
5807;SDS011;2930;42.678;23.312;2023-02-28T05:47:38;5.20;;;3.27;;
5807;SDS011;2930;42.678;23.312;2023-02-28T05:50:04;4.40;;;2.93;;
5807;SDS011;2930;42.678;23.312;2023-02-28T05:52:30;7.53;;;3.60;;
5807;SDS011;2930;42.678;23.312;2023-02-28T05:54:56;6.67;;;3.93;;
5807;SDS011;2930;42.678;23.312;2023-02-28T05:57:22;10.70;;;3.70;;
5807;SDS011;2930;42.678;23.312;2023-02-28T05:59:48;6.20;;;3.87;;
5807;SDS011;2930;42.678;23.312;2023-02-28T06:02:14;6.33;;;3.83;;
5807;SDS011;2930;42.678;23.312;2023-02-28T06:04:41;7.27;;;3.63;;
5807;SDS011;2930;42.678;23.312;2023-02-28T06:07:07;6.07;;;2.93;;
5807;SDS011;2930;42.678;23.312;2023-02-28T06:09:34;5.80;;;3.17;;
5807;SDS011;2930;42.678;23.312;2023-02-28T06:12:00;6.70;;;3.87;;
5807;SDS011;2930;42.678;23.312;2023-02-28T06:14:28;7.63;;;4.27;;
5807;SDS011;2930;42.678;23.312;2023-02-28T06:16:56;5.20;;;3.77;;
5807;SDS011;2930;42.678;23.312;2023-02-28T06:19:22;9.97;;;3.90;;
5807;SDS011;2930;42.678;23.312;2023-02-28T06:21:50;7.13;;;3.93;;
5807;SDS011;2930;42.678;23.312;2023-02-28T06:24:17;9.63;;;3.97;;
5807;SDS011;2930;42.678;23.312;2023-02-28T06:26:44;6.57;;;4.03;;
5807;SDS011;2930;42.678;23.312;2023-02-28T06:29:09;10.30;;;4.97;;
5807;SDS011;2930;42.678;23.312;2023-02-28T06:31:35;8.43;;;3.30;;
5807;SDS011;2930;42.678;23.312;2023-02-28T06:34:01;7.40;;;4.33;;
5807;SDS011;2930;42.678;23.312;2023-02-28T06:36:26;11.80;;;4.13;;
5807;SDS011;2930;42.678;23.312;2023-02-28T06:38:52;5.33;;;3.93;;
5807;SDS011;2930;42.678;23.312;2023-02-28T06:41:24;10.40;;;4.10;;
5807;SDS011;2930;42.678;23.312;2023-02-28T06:43:51;9.50;;;4.93;;
5807;SDS011;2930;42.678;23.312;2023-02-28T06:46:17;7.87;;;4.30;;
5807;SDS011;2930;42.678;23.312;2023-02-28T06:48:43;8.67;;;5.00;;
5807;SDS011;2930;42.678;23.312;2023-02-28T06:51:13;7.50;;;4.27;;
5807;SDS011;2930;42.678;23.312;2023-02-28T06:53:41;10.30;;;5.27;;
5807;SDS011;2930;42.678;23.312;2023-02-28T06:56:09;7.77;;;4.67;;
5807;SDS011;2930;42.678;23.312;2023-02-28T06:58:37;11.30;;;5.23;;
5807;SDS011;2930;42.678;23.312;2023-02-28T07:01:04;9.00;;;4.53;;
5807;SDS011;2930;42.678;23.312;2023-02-28T07:03:30;16.17;;;5.23;;
5807;SDS011;2930;42.678;23.312;2023-02-28T07:05:56;8.77;;;5.53;;
5807;SDS011;2930;42.678;23.312;2023-02-28T07:08:23;10.50;;;4.90;;
5807;SDS011;2930;42.678;23.312;2023-02-28T07:10:55;7.13;;;4.67;;
5807;SDS011;2930;42.678;23.312;2023-02-28T07:13:22;9.30;;;5.00;;
5807;SDS011;2930;42.678;23.312;2023-02-28T07:16:01;11.67;;;5.40;;
5807;SDS011;2930;42.678;23.312;2023-02-28T07:18:30;7.87;;;4.93;;
5807;SDS011;2930;42.678;23.312;2023-02-28T07:20:56;8.53;;;4.63;;
5807;SDS011;2930;42.678;23.312;2023-02-28T07:23:22;7.77;;;5.10;;
5807;SDS011;2930;42.678;23.312;2023-02-28T07:25:49;7.90;;;4.80;;
5807;SDS011;2930;42.678;23.312;2023-02-28T07:28:15;10.10;;;4.47;;
5807;SDS011;2930;42.678;23.312;2023-02-28T07:30:41;9.43;;;4.87;;
5807;SDS011;2930;42.678;23.312;2023-02-28T07:33:07;10.30;;;4.53;;
5807;SDS011;2930;42.678;23.312;2023-02-28T07:35:33;6.77;;;4.57;;
5807;SDS011;2930;42.678;23.312;2023-02-28T07:37:59;12.10;;;4.43;;
5807;SDS011;2930;42.678;23.312;2023-02-28T07:40:25;7.90;;;4.80;;
5807;SDS011;2930;42.678;23.312;2023-02-28T07:42:51;7.80;;;4.83;;
5807;SDS011;2930;42.678;23.312;2023-02-28T07:45:17;5.57;;;4.83;;
5807;SDS011;2930;42.678;23.312;2023-02-28T07:47:43;9.63;;;4.23;;
5807;SDS011;2930;42.678;23.312;2023-02-28T07:50:10;9.70;;;4.37;;
5807;SDS011;2930;42.678;23.312;2023-02-28T07:52:38;10.97;;;5.13;;
5807;SDS011;2930;42.678;23.312;2023-02-28T07:55:04;9.20;;;5.03;;
5807;SDS011;2930;42.678;23.312;2023-02-28T07:57:31;7.97;;;4.83;;
5807;SDS011;2930;42.678;23.312;2023-02-28T07:59:57;9.23;;;5.10;;
5807;SDS011;2930;42.678;23.312;2023-02-28T08:02:23;9.40;;;5.30;;
5807;SDS011;2930;42.678;23.312;2023-02-28T08:04:49;12.70;;;5.20;;
5807;SDS011;2930;42.678;23.312;2023-02-28T08:07:15;7.63;;;4.80;;
5807;SDS011;2930;42.678;23.312;2023-02-28T08:09:42;6.67;;;4.47;;
5807;SDS011;2930;42.678;23.312;2023-02-28T08:12:08;11.33;;;5.67;;
5807;SDS011;2930;42.678;23.312;2023-02-28T08:14:35;8.20;;;5.00;;
5807;SDS011;2930;42.678;23.312;2023-02-28T08:17:01;7.47;;;4.57;;
5807;SDS011;2930;42.678;23.312;2023-02-28T08:19:27;8.00;;;4.83;;
5807;SDS011;2930;42.678;23.312;2023-02-28T08:21:53;8.80;;;4.40;;
5807;SDS011;2930;42.678;23.312;2023-02-28T08:24:19;10.00;;;4.93;;
5807;SDS011;2930;42.678;23.312;2023-02-28T08:26:45;11.63;;;4.87;;
5807;SDS011;2930;42.678;23.312;2023-02-28T08:29:11;10.17;;;4.90;;
5807;SDS011;2930;42.678;23.312;2023-02-28T08:31:36;15.30;;;5.60;;
5807;SDS011;2930;42.678;23.312;2023-02-28T08:34:09;6.88;;;4.63;;
5807;SDS011;2930;42.678;23.312;2023-02-28T08:36:37;8.87;;;4.93;;
5807;SDS011;2930;42.678;23.312;2023-02-28T08:39:03;11.03;;;5.27;;
5807;SDS011;2930;42.678;23.312;2023-02-28T08:41:29;8.32;;;5.00;;
5807;SDS011;2930;42.678;23.312;2023-02-28T08:43:55;8.07;;;5.30;;
5807;SDS011;2930;42.678;23.312;2023-02-28T08:46:22;10.32;;;5.28;;
5807;SDS011;2930;42.678;23.312;2023-02-28T08:48:51;8.73;;;5.20;;
5807;SDS011;2930;42.678;23.312;2023-02-28T08:51:18;8.97;;;5.30;;
5807;SDS011;2930;42.678;23.312;2023-02-28T08:53:51;6.25;;;4.72;;
5807;SDS011;2930;42.678;23.312;2023-02-28T08:56:18;12.10;;;5.40;;
5807;SDS011;2930;42.678;23.312;2023-02-28T08:58:44;10.10;;;5.47;;
5807;SDS011;2930;42.678;23.312;2023-02-28T09:01:15;14.07;;;6.60;;
5807;SDS011;2930;42.678;23.312;2023-02-28T09:03:42;13.83;;;6.20;;
5807;SDS011;2930;42.678;23.312;2023-02-28T09:06:08;10.77;;;5.15;;
5807;SDS011;2930;42.678;23.312;2023-02-28T09:08:35;8.23;;;5.15;;
5807;SDS011;2930;42.678;23.312;2023-02-28T09:11:01;9.50;;;6.65;;
5807;SDS011;2930;42.678;23.312;2023-02-28T09:13:28;19.10;;;8.43;;
5807;SDS011;2930;42.678;23.312;2023-02-28T09:15:54;18.55;;;8.52;;
5807;SDS011;2930;42.678;23.312;2023-02-28T09:18:23;19.03;;;9.00;;
5807;SDS011;2930;42.678;23.312;2023-02-28T09:20:49;18.98;;;8.85;;
5807;SDS011;2930;42.678;23.312;2023-02-28T09:23:15;17.70;;;8.75;;
5807;SDS011;2930;42.678;23.312;2023-02-28T09:25:45;17.08;;;7.90;;
5807;SDS011;2930;42.678;23.312;2023-02-28T09:28:13;13.40;;;6.93;;
5807;SDS011;2930;42.678;23.312;2023-02-28T09:30:41;14.93;;;7.43;;
5807;SDS011;2930;42.678;23.312;2023-02-28T09:33:07;17.57;;;8.57;;
5807;SDS011;2930;42.678;23.312;2023-02-28T09:35:33;23.67;;;9.25;;
5807;SDS011;2930;42.678;23.312;2023-02-28T09:37:58;21.88;;;9.23;;
5807;SDS011;2930;42.678;23.312;2023-02-28T09:40:24;22.37;;;9.60;;
5807;SDS011;2930;42.678;23.312;2023-02-28T09:42:51;21.60;;;9.17;;
5807;SDS011;2930;42.678;23.312;2023-02-28T09:47:55;15.40;;;7.87;;
5807;SDS011;2930;42.678;23.312;2023-02-28T09:53:13;21.03;;;8.37;;
5807;SDS011;2930;42.678;23.312;2023-02-28T09:55:48;19.67;;;8.45;;
5807;SDS011;2930;42.678;23.312;2023-02-28T09:58:22;23.23;;;10.07;;
5807;SDS011;2930;42.678;23.312;2023-02-28T10:01:03;23.67;;;9.67;;
5807;SDS011;2930;42.678;23.312;2023-02-28T10:03:46;20.63;;;9.15;;
5807;SDS011;2930;42.678;23.312;2023-02-28T10:06:23;19.25;;;8.68;;
5807;SDS011;2930;42.678;23.312;2023-02-28T10:09:02;19.00;;;9.70;;
5807;SDS011;2930;42.678;23.312;2023-02-28T10:11:34;10.75;;;5.65;;
5807;SDS011;2930;42.678;23.312;2023-02-28T10:25:41;7.35;;;2.47;;
5807;SDS011;2930;42.678;23.312;2023-02-28T10:28:16;3.33;;;2.85;;
5807;SDS011;2930;42.678;23.312;2023-02-28T10:30:46;3.78;;;2.80;;
5807;SDS011;2930;42.678;23.312;2023-02-28T10:33:33;4.28;;;2.95;;
5807;SDS011;2930;42.678;23.312;2023-02-28T10:36:00;5.75;;;2.45;;
5807;SDS011;2930;42.678;23.312;2023-02-28T10:38:31;2.80;;;2.55;;
5807;SDS011;2930;42.678;23.312;2023-02-28T10:41:08;9.55;;;3.10;;
5807;SDS011;2930;42.678;23.312;2023-02-28T10:43:34;8.38;;;3.05;;
5807;SDS011;2930;42.678;23.312;2023-02-28T10:46:02;3.17;;;2.17;;
5807;SDS011;2930;42.678;23.312;2023-02-28T10:48:30;6.10;;;2.28;;
5807;SDS011;2930;42.678;23.312;2023-02-28T10:50:58;6.03;;;2.78;;
5807;SDS011;2930;42.678;23.312;2023-02-28T10:53:28;3.47;;;2.47;;
5807;SDS011;2930;42.678;23.312;2023-02-28T10:58:42;5.00;;;2.92;;
5807;SDS011;2930;42.678;23.312;2023-02-28T11:01:17;4.57;;;2.88;;
5807;SDS011;2930;42.678;23.312;2023-02-28T11:03:43;4.03;;;2.90;;
5807;SDS011;2930;42.678;23.312;2023-02-28T11:06:13;5.40;;;2.92;;
5807;SDS011;2930;42.678;23.312;2023-02-28T11:12:00;3.63;;;2.58;;
5807;SDS011;2930;42.678;23.312;2023-02-28T11:14:30;4.00;;;3.17;;
5807;SDS011;2930;42.678;23.312;2023-02-28T11:17:00;4.70;;;3.20;;
5807;SDS011;2930;42.678;23.312;2023-02-28T11:19:39;5.53;;;3.42;;
5807;SDS011;2930;42.678;23.312;2023-02-28T11:22:09;5.75;;;3.40;;
5807;SDS011;2930;42.678;23.312;2023-02-28T11:24:42;4.75;;;3.88;;
5807;SDS011;2930;42.678;23.312;2023-02-28T11:29:55;6.07;;;3.30;;
5807;SDS011;2930;42.678;23.312;2023-02-28T11:32:23;5.10;;;3.78;;
5807;SDS011;2930;42.678;23.312;2023-02-28T11:35:04;6.05;;;3.60;;
5807;SDS011;2930;42.678;23.312;2023-02-28T11:37:42;4.55;;;3.58;;
5807;SDS011;2930;42.678;23.312;2023-02-28T11:40:17;8.05;;;3.92;;
5807;SDS011;2930;42.678;23.312;2023-02-28T11:42:55;5.95;;;3.25;;
5807;SDS011;2930;42.678;23.312;2023-02-28T11:48:24;3.92;;;2.83;;
5807;SDS011;2930;42.678;23.312;2023-02-28T12:04:54;12.68;;;4.05;;
5807;SDS011;2930;42.678;23.312;2023-02-28T12:10:29;4.15;;;3.75;;
5807;SDS011;2930;42.678;23.312;2023-02-28T12:27:02;5.60;;;3.75;;
5807;SDS011;2930;42.678;23.312;2023-02-28T12:29:39;5.60;;;3.65;;
5807;SDS011;2930;42.678;23.312;2023-02-28T12:32:15;7.32;;;3.70;;
5807;SDS011;2930;42.678;23.312;2023-02-28T12:34:52;3.88;;;3.28;;
5807;SDS011;2930;42.678;23.312;2023-02-28T12:37:44;4.75;;;3.15;;
5807;SDS011;2930;42.678;23.312;2023-02-28T12:40:12;6.20;;;3.22;;
5807;SDS011;2930;42.678;23.312;2023-02-28T12:43:04;6.85;;;3.60;;
5807;SDS011;2930;42.678;23.312;2023-02-28T12:48:18;6.65;;;3.78;;
5807;SDS011;2930;42.678;23.312;2023-02-28T12:50:51;5.05;;;3.13;;
5807;SDS011;2930;42.678;23.312;2023-02-28T12:56:08;4.25;;;3.45;;
5807;SDS011;2930;42.678;23.312;2023-02-28T12:58:41;6.60;;;3.10;;
5807;SDS011;2930;42.678;23.312;2023-02-28T13:09:23;14.68;;;3.08;;
5807;SDS011;2930;42.678;23.312;2023-02-28T13:11:52;8.95;;;2.42;;
5807;SDS011;2930;42.678;23.312;2023-02-28T13:19:38;9.68;;;3.40;;
5807;SDS011;2930;42.678;23.312;2023-02-28T13:22:04;5.95;;;3.13;;
5807;SDS011;2930;42.678;23.312;2023-02-28T13:50:22;5.38;;;2.70;;
5807;SDS011;2930;42.678;23.312;2023-02-28T13:52:51;4.47;;;2.67;;
5807;SDS011;2930;42.678;23.312;2023-02-28T13:55:28;5.88;;;2.63;;
5807;SDS011;2930;42.678;23.312;2023-02-28T14:08:52;5.07;;;2.40;;
5807;SDS011;2930;42.678;23.312;2023-02-28T14:11:35;4.60;;;2.13;;
5807;SDS011;2930;42.678;23.312;2023-02-28T14:14:03;6.93;;;2.63;;
5807;SDS011;2930;42.678;23.312;2023-02-28T14:16:40;3.58;;;2.40;;
5807;SDS011;2930;42.678;23.312;2023-02-28T14:19:15;6.32;;;2.83;;
5807;SDS011;2930;42.678;23.312;2023-02-28T14:24:38;5.13;;;2.33;;
5807;SDS011;2930;42.678;23.312;2023-02-28T14:41:24;2.53;;;1.98;;
5807;SDS011;2930;42.678;23.312;2023-02-28T14:44:03;3.45;;;1.65;;
5807;SDS011;2930;42.678;23.312;2023-02-28T14:46:39;2.83;;;2.53;;
5807;SDS011;2930;42.678;23.312;2023-02-28T14:49:12;6.95;;;2.72;;
5807;SDS011;2930;42.678;23.312;2023-02-28T14:52:02;2.70;;;2.38;;
5807;SDS011;2930;42.678;23.312;2023-02-28T14:54:28;3.00;;;2.50;;
5807;SDS011;2930;42.678;23.312;2023-02-28T14:56:54;2.30;;;2.10;;
5807;SDS011;2930;42.678;23.312;2023-02-28T14:59:24;2.85;;;1.98;;
5807;SDS011;2930;42.678;23.312;2023-02-28T15:02:12;5.38;;;1.95;;
5807;SDS011;2930;42.678;23.312;2023-02-28T15:04:42;2.20;;;2.00;;
5807;SDS011;2930;42.678;23.312;2023-02-28T15:07:16;2.88;;;2.25;;
5807;SDS011;2930;42.678;23.312;2023-02-28T15:09:42;2.70;;;1.85;;
5807;SDS011;2930;42.678;23.312;2023-02-28T15:12:09;3.80;;;2.00;;
5807;SDS011;2930;42.678;23.312;2023-02-28T15:14:39;2.53;;;1.67;;
5807;SDS011;2930;42.678;23.312;2023-02-28T15:17:11;4.68;;;2.35;;
5807;SDS011;2930;42.678;23.312;2023-02-28T15:19:46;3.58;;;2.03;;
5807;SDS011;2930;42.678;23.312;2023-02-28T15:22:17;2.63;;;1.83;;
5807;SDS011;2930;42.678;23.312;2023-02-28T15:24:49;3.25;;;2.03;;
5807;SDS011;2930;42.678;23.312;2023-02-28T15:27:21;2.22;;;1.42;;
5807;SDS011;2930;42.678;23.312;2023-02-28T15:29:50;4.13;;;2.00;;
5807;SDS011;2930;42.678;23.312;2023-02-28T15:32:26;4.93;;;1.70;;
5807;SDS011;2930;42.678;23.312;2023-02-28T15:34:59;2.17;;;1.83;;
5807;SDS011;2930;42.678;23.312;2023-02-28T15:43:13;4.70;;;1.30;;
5807;SDS011;2930;42.678;23.312;2023-02-28T15:45:44;3.13;;;1.98;;
5807;SDS011;2930;42.678;23.312;2023-02-28T15:48:16;4.53;;;1.80;;
5807;SDS011;2930;42.678;23.312;2023-02-28T15:53:48;1.77;;;1.00;;
5807;SDS011;2930;42.678;23.312;2023-02-28T15:56:23;1.60;;;1.50;;
5807;SDS011;2930;42.678;23.312;2023-02-28T15:59:13;7.20;;;1.65;;
5807;SDS011;2930;42.678;23.312;2023-02-28T16:01:41;3.45;;;1.30;;
5807;SDS011;2930;42.678;23.312;2023-02-28T16:04:14;4.60;;;1.58;;
5807;SDS011;2930;42.678;23.312;2023-02-28T16:07:00;1.98;;;1.67;;
5807;SDS011;2930;42.678;23.312;2023-02-28T16:09:30;1.25;;;1.17;;
5807;SDS011;2930;42.678;23.312;2023-02-28T16:11:59;2.08;;;1.95;;
5807;SDS011;2930;42.678;23.312;2023-02-28T16:14:30;2.97;;;1.90;;
5807;SDS011;2930;42.678;23.312;2023-02-28T16:16:57;2.22;;;1.67;;
5807;SDS011;2930;42.678;23.312;2023-02-28T16:19:29;1.98;;;1.77;;
5807;SDS011;2930;42.678;23.312;2023-02-28T16:21:56;1.85;;;1.60;;
5807;SDS011;2930;42.678;23.312;2023-02-28T16:24:22;2.63;;;1.70;;
5807;SDS011;2930;42.678;23.312;2023-02-28T16:26:48;1.60;;;1.40;;
5807;SDS011;2930;42.678;23.312;2023-02-28T16:29:23;1.83;;;1.67;;
5807;SDS011;2930;42.678;23.312;2023-02-28T16:31:52;1.27;;;1.27;;
5807;SDS011;2930;42.678;23.312;2023-02-28T16:34:18;2.05;;;1.40;;
5807;SDS011;2930;42.678;23.312;2023-02-28T16:36:46;1.10;;;1.05;;
5807;SDS011;2930;42.678;23.312;2023-02-28T16:39:12;2.25;;;1.60;;
5807;SDS011;2930;42.678;23.312;2023-02-28T16:41:38;1.55;;;1.45;;
5807;SDS011;2930;42.678;23.312;2023-02-28T16:46:56;0.90;;;0.90;;
5807;SDS011;2930;42.678;23.312;2023-02-28T16:49:24;1.45;;;1.35;;
5807;SDS011;2930;42.678;23.312;2023-02-28T16:51:50;1.00;;;1.00;;
5807;SDS011;2930;42.678;23.312;2023-02-28T16:54:16;3.47;;;1.30;;
5807;SDS011;2930;42.678;23.312;2023-02-28T16:56:43;1.83;;;1.10;;
5807;SDS011;2930;42.678;23.312;2023-02-28T16:59:10;1.80;;;1.25;;
5807;SDS011;2930;42.678;23.312;2023-02-28T17:01:38;1.40;;;1.30;;
5807;SDS011;2930;42.678;23.312;2023-02-28T17:04:05;4.18;;;1.33;;
5807;SDS011;2930;42.678;23.312;2023-02-28T17:06:31;1.13;;;1.13;;
5807;SDS011;2930;42.678;23.312;2023-02-28T17:08:57;2.17;;;1.08;;
5807;SDS011;2930;42.678;23.312;2023-02-28T17:11:24;1.52;;;0.98;;
5807;SDS011;2930;42.678;23.312;2023-02-28T17:13:51;0.80;;;0.80;;
5807;SDS011;2930;42.678;23.312;2023-02-28T17:18:57;2.35;;;0.65;;
5807;SDS011;2930;42.678;23.312;2023-02-28T17:21:31;3.35;;;2.28;;
5807;SDS011;2930;42.678;23.312;2023-02-28T17:23:58;2.10;;;1.63;;
5807;SDS011;2930;42.678;23.312;2023-02-28T17:26:24;1.13;;;1.08;;
5807;SDS011;2930;42.678;23.312;2023-02-28T17:28:51;0.63;;;0.63;;
5807;SDS011;2930;42.678;23.312;2023-02-28T17:31:19;0.75;;;0.75;;
5807;SDS011;2930;42.678;23.312;2023-02-28T17:33:45;1.13;;;0.77;;
5807;SDS011;2930;42.678;23.312;2023-02-28T17:36:14;0.93;;;0.90;;
5807;SDS011;2930;42.678;23.312;2023-02-28T17:38:49;0.60;;;0.60;;
5807;SDS011;2930;42.678;23.312;2023-02-28T17:41:15;0.60;;;0.50;;
5807;SDS011;2930;42.678;23.312;2023-02-28T17:43:41;0.57;;;0.57;;
5807;SDS011;2930;42.678;23.312;2023-02-28T17:46:16;1.17;;;0.80;;
5807;SDS011;2930;42.678;23.312;2023-02-28T17:48:45;0.87;;;0.53;;
5807;SDS011;2930;42.678;23.312;2023-02-28T17:51:12;0.50;;;0.50;;
5807;SDS011;2930;42.678;23.312;2023-02-28T17:53:39;0.77;;;0.73;;
5807;SDS011;2930;42.678;23.312;2023-02-28T17:56:05;0.50;;;0.50;;
5807;SDS011;2930;42.678;23.312;2023-02-28T17:58:36;1.90;;;0.80;;
5807;SDS011;2930;42.678;23.312;2023-02-28T18:01:02;0.93;;;0.50;;
5807;SDS011;2930;42.678;23.312;2023-02-28T18:03:27;0.73;;;0.50;;
5807;SDS011;2930;42.678;23.312;2023-02-28T18:05:54;0.53;;;0.53;;
5807;SDS011;2930;42.678;23.312;2023-02-28T18:08:21;0.73;;;0.60;;
5807;SDS011;2930;42.678;23.312;2023-02-28T18:10:47;0.50;;;0.50;;
5807;SDS011;2930;42.678;23.312;2023-02-28T18:13:13;0.67;;;0.67;;
5807;SDS011;2930;42.678;23.312;2023-02-28T18:15:38;0.90;;;0.70;;
5807;SDS011;2930;42.678;23.312;2023-02-28T18:18:04;1.13;;;0.70;;
5807;SDS011;2930;42.678;23.312;2023-02-28T18:20:31;0.77;;;0.77;;